sensor_id;sensor_type;location;lat;lon;timestamp;P1;durP1;ratioP1;P2;durP2;ratioP2
54125;SDS011;40360;52.992;6.796;2023-09-08T00:02:08;10.60;;;8.95;;
54125;SDS011;40360;52.992;6.796;2023-09-08T00:04:35;12.77;;;9.93;;
54125;SDS011;40360;52.992;6.796;2023-09-08T00:07:00;12.18;;;8.82;;
54125;SDS011;40360;52.992;6.796;2023-09-08T00:09:26;9.85;;;8.15;;
54125;SDS011;40360;52.992;6.796;2023-09-08T00:11:52;11.38;;;9.75;;
54125;SDS011;40360;52.992;6.796;2023-09-08T00:14:19;14.02;;;9.35;;
54125;SDS011;40360;52.992;6.796;2023-09-08T00:16:45;10.80;;;8.85;;
54125;SDS011;40360;52.992;6.796;2023-09-08T00:19:10;9.77;;;8.40;;
54125;SDS011;40360;52.992;6.796;2023-09-08T00:21:36;9.13;;;8.20;;
54125;SDS011;40360;52.992;6.796;2023-09-08T00:24:03;9.32;;;8.43;;
54125;SDS011;40360;52.992;6.796;2023-09-08T00:26:29;10.30;;;9.27;;
54125;SDS011;40360;52.992;6.796;2023-09-08T00:28:55;11.40;;;9.68;;
54125;SDS011;40360;52.992;6.796;2023-09-08T00:31:20;11.73;;;9.18;;
54125;SDS011;40360;52.992;6.796;2023-09-08T00:33:46;10.02;;;7.88;;
54125;SDS011;40360;52.992;6.796;2023-09-08T00:36:11;9.27;;;8.27;;
54125;SDS011;40360;52.992;6.796;2023-09-08T00:38:37;10.45;;;8.93;;
54125;SDS011;40360;52.992;6.796;2023-09-08T00:41:04;11.02;;;9.93;;
54125;SDS011;40360;52.992;6.796;2023-09-08T00:43:30;9.82;;;8.82;;
54125;SDS011;40360;52.992;6.796;2023-09-08T00:45:56;10.38;;;9.23;;
54125;SDS011;40360;52.992;6.796;2023-09-08T00:48:23;13.63;;;10.20;;
54125;SDS011;40360;52.992;6.796;2023-09-08T00:50:50;11.52;;;10.00;;
54125;SDS011;40360;52.992;6.796;2023-09-08T00:53:15;11.38;;;9.75;;
54125;SDS011;40360;52.992;6.796;2023-09-08T00:55:42;10.77;;;9.68;;
54125;SDS011;40360;52.992;6.796;2023-09-08T00:58:07;10.10;;;9.10;;
54125;SDS011;40360;52.992;6.796;2023-09-08T01:00:33;10.55;;;9.38;;
54125;SDS011;40360;52.992;6.796;2023-09-08T01:02:59;10.90;;;9.82;;
54125;SDS011;40360;52.992;6.796;2023-09-08T01:05:25;11.95;;;10.50;;
54125;SDS011;40360;52.992;6.796;2023-09-08T01:07:51;13.68;;;11.23;;
54125;SDS011;40360;52.992;6.796;2023-09-08T01:10:18;10.40;;;9.38;;
54125;SDS011;40360;52.992;6.796;2023-09-08T01:12:43;11.15;;;10.00;;
54125;SDS011;40360;52.992;6.796;2023-09-08T01:15:09;10.88;;;9.88;;
54125;SDS011;40360;52.992;6.796;2023-09-08T01:17:35;13.68;;;10.65;;
54125;SDS011;40360;52.992;6.796;2023-09-08T01:20:13;10.60;;;9.50;;
54125;SDS011;40360;52.992;6.796;2023-09-08T01:22:47;11.05;;;10.05;;
54125;SDS011;40360;52.992;6.796;2023-09-08T01:25:35;11.43;;;10.18;;
54125;SDS011;40360;52.992;6.796;2023-09-08T01:28:09;11.75;;;10.55;;
54125;SDS011;40360;52.992;6.796;2023-09-08T01:30:37;12.55;;;11.25;;
54125;SDS011;40360;52.992;6.796;2023-09-08T01:33:03;14.65;;;12.13;;
54125;SDS011;40360;52.992;6.796;2023-09-08T01:35:29;11.27;;;10.18;;
54125;SDS011;40360;52.992;6.796;2023-09-08T01:37:55;14.32;;;12.00;;
54125;SDS011;40360;52.992;6.796;2023-09-08T01:40:21;12.90;;;11.70;;
54125;SDS011;40360;52.992;6.796;2023-09-08T01:42:47;12.40;;;11.20;;
54125;SDS011;40360;52.992;6.796;2023-09-08T01:45:13;12.38;;;10.77;;
54125;SDS011;40360;52.992;6.796;2023-09-08T01:47:39;12.02;;;10.73;;
54125;SDS011;40360;52.992;6.796;2023-09-08T01:50:04;12.77;;;11.30;;
54125;SDS011;40360;52.992;6.796;2023-09-08T01:52:30;11.88;;;10.02;;
54125;SDS011;40360;52.992;6.796;2023-09-08T01:54:56;11.93;;;10.52;;
54125;SDS011;40360;52.992;6.796;2023-09-08T01:57:21;15.88;;;10.63;;
54125;SDS011;40360;52.992;6.796;2023-09-08T01:59:47;12.48;;;10.95;;
54125;SDS011;40360;52.992;6.796;2023-09-08T02:02:13;12.63;;;11.40;;
54125;SDS011;40360;52.992;6.796;2023-09-08T02:04:39;12.80;;;11.30;;
54125;SDS011;40360;52.992;6.796;2023-09-08T02:07:05;13.13;;;11.75;;
54125;SDS011;40360;52.992;6.796;2023-09-08T02:09:34;12.80;;;11.50;;
54125;SDS011;40360;52.992;6.796;2023-09-08T02:12:00;11.43;;;10.23;;
54125;SDS011;40360;52.992;6.796;2023-09-08T02:14:26;14.07;;;11.27;;
54125;SDS011;40360;52.992;6.796;2023-09-08T02:16:53;14.30;;;12.80;;
54125;SDS011;40360;52.992;6.796;2023-09-08T02:19:19;14.43;;;12.90;;
54125;SDS011;40360;52.992;6.796;2023-09-08T02:21:44;16.73;;;13.82;;
54125;SDS011;40360;52.992;6.796;2023-09-08T02:24:10;13.50;;;12.20;;
54125;SDS011;40360;52.992;6.796;2023-09-08T02:26:36;13.82;;;12.45;;
54125;SDS011;40360;52.992;6.796;2023-09-08T02:29:02;13.23;;;11.82;;
54125;SDS011;40360;52.992;6.796;2023-09-08T02:31:28;13.50;;;12.20;;
54125;SDS011;40360;52.992;6.796;2023-09-08T02:33:54;12.25;;;10.90;;
54125;SDS011;40360;52.992;6.796;2023-09-08T02:36:19;11.35;;;10.15;;
54125;SDS011;40360;52.992;6.796;2023-09-08T02:38:55;13.48;;;12.02;;
54125;SDS011;40360;52.992;6.796;2023-09-08T02:41:21;14.15;;;12.48;;
54125;SDS011;40360;52.992;6.796;2023-09-08T02:43:47;12.30;;;11.10;;
54125;SDS011;40360;52.992;6.796;2023-09-08T02:46:13;11.43;;;10.25;;
54125;SDS011;40360;52.992;6.796;2023-09-08T02:48:39;13.23;;;11.27;;
54125;SDS011;40360;52.992;6.796;2023-09-08T02:51:05;13.27;;;11.27;;
54125;SDS011;40360;52.992;6.796;2023-09-08T02:53:31;14.15;;;11.65;;
54125;SDS011;40360;52.992;6.796;2023-09-08T02:55:57;18.23;;;11.68;;
54125;SDS011;40360;52.992;6.796;2023-09-08T02:58:23;15.23;;;11.57;;
54125;SDS011;40360;52.992;6.796;2023-09-08T03:00:50;14.43;;;11.73;;
54125;SDS011;40360;52.992;6.796;2023-09-08T03:03:18;12.45;;;11.13;;
54125;SDS011;40360;52.992;6.796;2023-09-08T03:05:44;13.02;;;11.68;;
54125;SDS011;40360;52.992;6.796;2023-09-08T03:08:10;11.13;;;9.90;;
54125;SDS011;40360;52.992;6.796;2023-09-08T03:10:36;12.82;;;10.95;;
54125;SDS011;40360;52.992;6.796;2023-09-08T03:13:02;13.60;;;12.25;;
54125;SDS011;40360;52.992;6.796;2023-09-08T03:15:30;12.82;;;11.52;;
54125;SDS011;40360;52.992;6.796;2023-09-08T03:17:57;12.77;;;10.85;;
54125;SDS011;40360;52.992;6.796;2023-09-08T03:20:23;14.45;;;11.50;;
54125;SDS011;40360;52.992;6.796;2023-09-08T03:22:51;12.98;;;11.02;;
54125;SDS011;40360;52.992;6.796;2023-09-08T03:25:17;12.23;;;11.02;;
54125;SDS011;40360;52.992;6.796;2023-09-08T03:27:42;12.52;;;10.57;;
54125;SDS011;40360;52.992;6.796;2023-09-08T03:30:08;13.45;;;11.52;;
54125;SDS011;40360;52.992;6.796;2023-09-08T03:32:34;13.65;;;12.25;;
54125;SDS011;40360;52.992;6.796;2023-09-08T03:35:00;11.98;;;10.60;;
54125;SDS011;40360;52.992;6.796;2023-09-08T03:37:26;12.70;;;11.40;;
54125;SDS011;40360;52.992;6.796;2023-09-08T03:39:52;13.60;;;12.25;;
54125;SDS011;40360;52.992;6.796;2023-09-08T03:42:18;14.52;;;12.38;;
54125;SDS011;40360;52.992;6.796;2023-09-08T03:44:44;13.40;;;11.98;;
54125;SDS011;40360;52.992;6.796;2023-09-08T03:47:09;15.93;;;11.73;;
54125;SDS011;40360;52.992;6.796;2023-09-08T03:49:35;11.45;;;10.32;;
54125;SDS011;40360;52.992;6.796;2023-09-08T03:52:01;12.05;;;10.77;;
54125;SDS011;40360;52.992;6.796;2023-09-08T03:54:26;16.73;;;12.75;;
54125;SDS011;40360;52.992;6.796;2023-09-08T03:56:52;15.43;;;13.27;;
54125;SDS011;40360;52.992;6.796;2023-09-08T03:59:18;13.60;;;11.88;;
54125;SDS011;40360;52.992;6.796;2023-09-08T04:01:43;14.52;;;13.07;;
54125;SDS011;40360;52.992;6.796;2023-09-08T04:04:09;15.95;;;14.43;;
54125;SDS011;40360;52.992;6.796;2023-09-08T04:06:34;17.42;;;14.10;;
54125;SDS011;40360;52.992;6.796;2023-09-08T04:09:00;14.32;;;12.52;;
54125;SDS011;40360;52.992;6.796;2023-09-08T04:11:26;14.27;;;11.50;;
54125;SDS011;40360;52.992;6.796;2023-09-08T04:13:51;15.40;;;13.88;;
54125;SDS011;40360;52.992;6.796;2023-09-08T04:16:17;14.52;;;12.93;;
54125;SDS011;40360;52.992;6.796;2023-09-08T04:18:43;18.73;;;16.50;;
54125;SDS011;40360;52.992;6.796;2023-09-08T04:21:09;18.25;;;13.52;;
54125;SDS011;40360;52.992;6.796;2023-09-08T04:23:35;14.23;;;12.82;;
54125;SDS011;40360;52.992;6.796;2023-09-08T04:26:01;15.65;;;13.98;;
54125;SDS011;40360;52.992;6.796;2023-09-08T04:28:26;14.43;;;12.95;;
54125;SDS011;40360;52.992;6.796;2023-09-08T04:30:52;15.25;;;11.93;;
54125;SDS011;40360;52.992;6.796;2023-09-08T04:33:17;13.25;;;11.85;;
54125;SDS011;40360;52.992;6.796;2023-09-08T04:35:43;16.85;;;13.43;;
54125;SDS011;40360;52.992;6.796;2023-09-08T04:38:09;15.70;;;14.10;;
54125;SDS011;40360;52.992;6.796;2023-09-08T04:40:34;19.73;;;15.02;;
54125;SDS011;40360;52.992;6.796;2023-09-08T04:43:00;16.17;;;14.57;;
54125;SDS011;40360;52.992;6.796;2023-09-08T04:45:25;19.08;;;15.15;;
54125;SDS011;40360;52.992;6.796;2023-09-08T04:47:51;15.18;;;13.38;;
54125;SDS011;40360;52.992;6.796;2023-09-08T04:50:17;15.15;;;13.60;;
54125;SDS011;40360;52.992;6.796;2023-09-08T04:52:42;14.18;;;12.73;;
54125;SDS011;40360;52.992;6.796;2023-09-08T04:55:08;15.02;;;13.43;;
54125;SDS011;40360;52.992;6.796;2023-09-08T04:57:34;14.30;;;12.80;;
54125;SDS011;40360;52.992;6.796;2023-09-08T05:00:00;15.15;;;13.65;;
54125;SDS011;40360;52.992;6.796;2023-09-08T05:02:26;14.60;;;13.10;;
54125;SDS011;40360;52.992;6.796;2023-09-08T05:04:52;16.83;;;14.57;;
54125;SDS011;40360;52.992;6.796;2023-09-08T05:07:17;16.75;;;13.82;;
54125;SDS011;40360;52.992;6.796;2023-09-08T05:09:44;18.70;;;14.43;;
54125;SDS011;40360;52.992;6.796;2023-09-08T05:12:09;15.18;;;12.60;;
54125;SDS011;40360;52.992;6.796;2023-09-08T05:14:35;18.58;;;14.10;;
54125;SDS011;40360;52.992;6.796;2023-09-08T05:17:01;14.73;;;13.23;;
54125;SDS011;40360;52.992;6.796;2023-09-08T05:19:26;15.50;;;13.90;;
54125;SDS011;40360;52.992;6.796;2023-09-08T05:21:53;15.27;;;13.07;;
54125;SDS011;40360;52.992;6.796;2023-09-08T05:24:19;15.73;;;13.35;;
54125;SDS011;40360;52.992;6.796;2023-09-08T05:26:46;14.43;;;13.05;;
54125;SDS011;40360;52.992;6.796;2023-09-08T05:29:12;16.85;;;14.57;;
54125;SDS011;40360;52.992;6.796;2023-09-08T05:31:38;16.40;;;14.13;;
54125;SDS011;40360;52.992;6.796;2023-09-08T05:34:03;16.00;;;14.40;;
54125;SDS011;40360;52.992;6.796;2023-09-08T05:36:29;15.10;;;12.60;;
54125;SDS011;40360;52.992;6.796;2023-09-08T05:38:56;15.02;;;13.45;;
54125;SDS011;40360;52.992;6.796;2023-09-08T05:41:21;16.52;;;14.73;;
54125;SDS011;40360;52.992;6.796;2023-09-08T06:01:57;17.98;;;15.77;;
54125;SDS011;40360;52.992;6.796;2023-09-08T06:04:23;17.50;;;15.65;;
54125;SDS011;40360;52.992;6.796;2023-09-08T06:06:49;17.90;;;15.88;;
54125;SDS011;40360;52.992;6.796;2023-09-08T06:09:14;17.80;;;15.95;;
54125;SDS011;40360;52.992;6.796;2023-09-08T06:11:41;20.58;;;16.45;;
54125;SDS011;40360;52.992;6.796;2023-09-08T06:14:07;17.70;;;15.88;;
54125;SDS011;40360;52.992;6.796;2023-09-08T06:16:32;17.30;;;15.55;;
54125;SDS011;40360;52.992;6.796;2023-09-08T06:18:58;16.05;;;14.55;;
54125;SDS011;40360;52.992;6.796;2023-09-08T06:21:24;18.27;;;16.48;;
54125;SDS011;40360;52.992;6.796;2023-09-08T06:23:50;16.67;;;14.20;;
54125;SDS011;40360;52.992;6.796;2023-09-08T06:26:15;17.05;;;14.48;;
54125;SDS011;40360;52.992;6.796;2023-09-08T06:28:41;16.48;;;14.18;;
54125;SDS011;40360;52.992;6.796;2023-09-08T06:31:08;15.40;;;13.82;;
54125;SDS011;40360;52.992;6.796;2023-09-08T06:33:34;16.50;;;14.85;;
54125;SDS011;40360;52.992;6.796;2023-09-08T06:35:59;17.45;;;14.60;;
54125;SDS011;40360;52.992;6.796;2023-09-08T06:38:25;16.73;;;15.10;;
54125;SDS011;40360;52.992;6.796;2023-09-08T06:40:51;16.85;;;15.10;;
54125;SDS011;40360;52.992;6.796;2023-09-08T06:43:18;15.70;;;14.02;;
54125;SDS011;40360;52.992;6.796;2023-09-08T06:45:46;16.42;;;14.23;;
54125;SDS011;40360;52.992;6.796;2023-09-08T06:48:14;15.25;;;13.68;;
54125;SDS011;40360;52.992;6.796;2023-09-08T06:50:39;15.88;;;13.90;;
54125;SDS011;40360;52.992;6.796;2023-09-08T06:53:05;14.90;;;13.38;;
54125;SDS011;40360;52.992;6.796;2023-09-08T06:55:31;14.68;;;13.20;;
54125;SDS011;40360;52.992;6.796;2023-09-08T06:57:56;15.73;;;14.07;;
54125;SDS011;40360;52.992;6.796;2023-09-08T07:00:22;14.85;;;13.35;;
54125;SDS011;40360;52.992;6.796;2023-09-08T07:02:48;15.80;;;14.30;;
54125;SDS011;40360;52.992;6.796;2023-09-08T07:05:16;15.88;;;14.18;;
54125;SDS011;40360;52.992;6.796;2023-09-08T07:07:42;14.50;;;13.10;;
54125;SDS011;40360;52.992;6.796;2023-09-08T07:10:08;13.73;;;12.43;;
54125;SDS011;40360;52.992;6.796;2023-09-08T07:12:34;13.70;;;12.30;;
54125;SDS011;40360;52.992;6.796;2023-09-08T07:15:00;15.05;;;13.45;;
54125;SDS011;40360;52.992;6.796;2023-09-08T07:17:26;14.65;;;12.90;;
54125;SDS011;40360;52.992;6.796;2023-09-08T07:19:52;14.13;;;12.48;;
54125;SDS011;40360;52.992;6.796;2023-09-08T07:22:18;22.15;;;13.15;;
54125;SDS011;40360;52.992;6.796;2023-09-08T07:24:44;14.27;;;11.75;;
54125;SDS011;40360;52.992;6.796;2023-09-08T07:27:10;13.15;;;11.82;;
54125;SDS011;40360;52.992;6.796;2023-09-08T07:29:39;14.35;;;12.23;;
54125;SDS011;40360;52.992;6.796;2023-09-08T07:32:05;13.32;;;12.02;;
54125;SDS011;40360;52.992;6.796;2023-09-08T07:34:31;13.07;;;11.88;;
54125;SDS011;40360;52.992;6.796;2023-09-08T07:36:57;13.18;;;11.45;;
54125;SDS011;40360;52.992;6.796;2023-09-08T07:39:25;13.60;;;12.20;;
54125;SDS011;40360;52.992;6.796;2023-09-08T07:41:51;12.80;;;11.43;;
54125;SDS011;40360;52.992;6.796;2023-09-08T07:44:19;12.10;;;10.68;;
54125;SDS011;40360;52.992;6.796;2023-09-08T07:46:44;14.63;;;11.88;;
54125;SDS011;40360;52.992;6.796;2023-09-08T07:49:11;12.18;;;10.98;;
54125;SDS011;40360;52.992;6.796;2023-09-08T07:51:37;14.63;;;11.90;;
54125;SDS011;40360;52.992;6.796;2023-09-08T07:54:02;11.90;;;10.70;;
54125;SDS011;40360;52.992;6.796;2023-09-08T07:56:29;15.13;;;11.35;;
54125;SDS011;40360;52.992;6.796;2023-09-08T07:58:55;11.98;;;10.68;;
54125;SDS011;40360;52.992;6.796;2023-09-08T08:01:20;13.35;;;11.95;;
54125;SDS011;40360;52.992;6.796;2023-09-08T08:03:46;12.05;;;10.77;;
54125;SDS011;40360;52.992;6.796;2023-09-08T08:06:12;12.65;;;11.45;;
54125;SDS011;40360;52.992;6.796;2023-09-08T08:08:37;13.63;;;12.38;;
54125;SDS011;40360;52.992;6.796;2023-09-08T08:11:11;12.48;;;11.27;;
54125;SDS011;40360;52.992;6.796;2023-09-08T08:13:37;12.23;;;11.13;;
54125;SDS011;40360;52.992;6.796;2023-09-08T08:16:03;12.00;;;10.90;;
54125;SDS011;40360;52.992;6.796;2023-09-08T08:18:29;12.10;;;10.93;;
54125;SDS011;40360;52.992;6.796;2023-09-08T08:20:54;15.32;;;10.93;;
54125;SDS011;40360;52.992;6.796;2023-09-08T08:23:20;12.88;;;10.38;;
54125;SDS011;40360;52.992;6.796;2023-09-08T08:25:46;11.13;;;10.02;;
54125;SDS011;40360;52.992;6.796;2023-09-08T08:28:13;14.85;;;10.65;;
54125;SDS011;40360;52.992;6.796;2023-09-08T08:30:39;11.40;;;10.00;;
54125;SDS011;40360;52.992;6.796;2023-09-08T08:33:05;20.15;;;9.65;;
54125;SDS011;40360;52.992;6.796;2023-09-08T08:35:31;17.58;;;9.38;;
54125;SDS011;40360;52.992;6.796;2023-09-08T08:38:00;12.43;;;9.43;;
54125;SDS011;40360;52.992;6.796;2023-09-08T08:40:26;9.18;;;7.80;;
54125;SDS011;40360;52.992;6.796;2023-09-08T08:42:55;9.00;;;8.10;;
54125;SDS011;40360;52.992;6.796;2023-09-08T08:45:25;10.77;;;8.40;;
54125;SDS011;40360;52.992;6.796;2023-09-08T08:47:51;8.35;;;7.55;;
54125;SDS011;40360;52.992;6.796;2023-09-08T08:50:18;10.90;;;8.10;;
54125;SDS011;40360;52.992;6.796;2023-09-08T08:52:44;9.57;;;7.65;;
54125;SDS011;40360;52.992;6.796;2023-09-08T08:55:10;9.43;;;8.43;;
54125;SDS011;40360;52.992;6.796;2023-09-08T08:57:40;10.15;;;8.18;;
54125;SDS011;40360;52.992;6.796;2023-09-08T09:00:09;12.50;;;8.25;;
54125;SDS011;40360;52.992;6.796;2023-09-08T09:02:40;9.45;;;8.07;;
54125;SDS011;40360;52.992;6.796;2023-09-08T09:05:13;10.95;;;8.07;;
54125;SDS011;40360;52.992;6.796;2023-09-08T09:07:41;8.25;;;6.75;;
54125;SDS011;40360;52.992;6.796;2023-09-08T09:10:07;7.68;;;6.97;;
54125;SDS011;40360;52.992;6.796;2023-09-08T09:12:35;10.02;;;7.53;;
54125;SDS011;40360;52.992;6.796;2023-09-08T09:15:02;8.65;;;6.50;;
54125;SDS011;40360;52.992;6.796;2023-09-08T09:17:29;7.68;;;6.68;;
54125;SDS011;40360;52.992;6.796;2023-09-08T09:20:17;10.05;;;6.95;;
54125;SDS011;40360;52.992;6.796;2023-09-08T09:22:45;6.95;;;6.28;;
54125;SDS011;40360;52.992;6.796;2023-09-08T09:25:28;7.60;;;6.10;;
54125;SDS011;40360;52.992;6.796;2023-09-08T09:27:55;7.13;;;4.90;;
54125;SDS011;40360;52.992;6.796;2023-09-08T09:30:23;6.75;;;4.85;;
54125;SDS011;40360;52.992;6.796;2023-09-08T09:33:03;6.45;;;5.07;;
54125;SDS011;40360;52.992;6.796;2023-09-08T09:35:39;6.90;;;5.50;;
54125;SDS011;40360;52.992;6.796;2023-09-08T09:40:34;8.15;;;4.72;;
54125;SDS011;40360;52.992;6.796;2023-09-08T09:42:59;5.68;;;4.75;;
54125;SDS011;40360;52.992;6.796;2023-09-08T09:45:25;7.65;;;5.03;;
54125;SDS011;40360;52.992;6.796;2023-09-08T09:47:51;4.88;;;4.38;;
54125;SDS011;40360;52.992;6.796;2023-09-08T09:50:33;5.43;;;4.65;;
54125;SDS011;40360;52.992;6.796;2023-09-08T09:53:00;6.97;;;4.65;;
54125;SDS011;40360;52.992;6.796;2023-09-08T09:55:32;5.20;;;4.70;;
54125;SDS011;40360;52.992;6.796;2023-09-08T09:58:01;9.45;;;5.22;;
54125;SDS011;40360;52.992;6.796;2023-09-08T10:00:29;6.75;;;4.65;;
54125;SDS011;40360;52.992;6.796;2023-09-08T10:02:57;5.72;;;5.13;;
54125;SDS011;40360;52.992;6.796;2023-09-08T10:05:23;4.30;;;3.90;;
54125;SDS011;40360;52.992;6.796;2023-09-08T10:07:50;6.45;;;5.10;;
54125;SDS011;40360;52.992;6.796;2023-09-08T10:10:17;7.53;;;5.30;;
54125;SDS011;40360;52.992;6.796;2023-09-08T10:12:44;5.63;;;5.00;;
54125;SDS011;40360;52.992;6.796;2023-09-08T10:15:11;5.30;;;4.40;;
54125;SDS011;40360;52.992;6.796;2023-09-08T10:17:37;4.35;;;3.88;;
54125;SDS011;40360;52.992;6.796;2023-09-08T10:20:06;8.77;;;4.50;;
54125;SDS011;40360;52.992;6.796;2023-09-08T10:22:38;5.20;;;4.60;;
54125;SDS011;40360;52.992;6.796;2023-09-08T10:25:06;6.38;;;4.93;;
54125;SDS011;40360;52.992;6.796;2023-09-08T10:27:33;6.65;;;4.90;;
54125;SDS011;40360;52.992;6.796;2023-09-08T10:30:01;6.55;;;4.70;;
54125;SDS011;40360;52.992;6.796;2023-09-08T10:32:34;4.85;;;4.30;;
54125;SDS011;40360;52.992;6.796;2023-09-08T10:35:04;5.07;;;4.50;;
54125;SDS011;40360;52.992;6.796;2023-09-08T10:37:31;5.68;;;4.97;;
54125;SDS011;40360;52.992;6.796;2023-09-08T10:40:42;6.75;;;4.88;;
54125;SDS011;40360;52.992;6.796;2023-09-08T10:42:46;5.80;;;4.93;;
54125;SDS011;40360;52.992;6.796;2023-09-08T10:45:18;5.55;;;4.95;;
54125;SDS011;40360;52.992;6.796;2023-09-08T10:50:17;6.20;;;4.45;;
54125;SDS011;40360;52.992;6.796;2023-09-08T10:52:44;6.75;;;5.15;;
54125;SDS011;40360;52.992;6.796;2023-09-08T10:55:35;6.85;;;4.60;;
54125;SDS011;40360;52.992;6.796;2023-09-08T10:58:18;7.03;;;4.55;;
54125;SDS011;40360;52.992;6.796;2023-09-08T11:00:46;4.95;;;4.43;;
54125;SDS011;40360;52.992;6.796;2023-09-08T11:03:13;6.03;;;4.72;;
54125;SDS011;40360;52.992;6.796;2023-09-08T11:05:50;7.00;;;4.43;;
54125;SDS011;40360;52.992;6.796;2023-09-08T11:08:17;5.30;;;4.80;;
54125;SDS011;40360;52.992;6.796;2023-09-08T11:10:44;5.13;;;4.45;;
54125;SDS011;40360;52.992;6.796;2023-09-08T11:13:10;5.70;;;4.47;;
54125;SDS011;40360;52.992;6.796;2023-09-08T11:15:36;6.30;;;4.60;;
54125;SDS011;40360;52.992;6.796;2023-09-08T11:18:05;7.05;;;5.20;;
54125;SDS011;40360;52.992;6.796;2023-09-08T11:20:31;7.40;;;4.93;;
54125;SDS011;40360;52.992;6.796;2023-09-08T11:22:57;6.55;;;4.78;;
54125;SDS011;40360;52.992;6.796;2023-09-08T11:25:23;6.63;;;4.68;;
54125;SDS011;40360;52.992;6.796;2023-09-08T11:27:49;5.13;;;4.55;;
54125;SDS011;40360;52.992;6.796;2023-09-08T11:30:15;5.13;;;4.63;;
54125;SDS011;40360;52.992;6.796;2023-09-08T11:32:41;6.20;;;5.00;;
54125;SDS011;40360;52.992;6.796;2023-09-08T11:35:07;6.35;;;4.13;;
54125;SDS011;40360;52.992;6.796;2023-09-08T11:37:35;5.20;;;4.32;;
54125;SDS011;40360;52.992;6.796;2023-09-08T11:40:03;5.05;;;4.55;;
54125;SDS011;40360;52.992;6.796;2023-09-08T11:42:35;5.47;;;4.38;;
54125;SDS011;40360;52.992;6.796;2023-09-08T11:45:00;8.82;;;4.55;;
54125;SDS011;40360;52.992;6.796;2023-09-08T11:47:29;7.70;;;4.50;;
54125;SDS011;40360;52.992;6.796;2023-09-08T11:49:55;7.63;;;4.20;;
54125;SDS011;40360;52.992;6.796;2023-09-08T11:52:22;8.10;;;5.30;;
54125;SDS011;40360;52.992;6.796;2023-09-08T11:54:49;5.38;;;4.30;;
54125;SDS011;40360;52.992;6.796;2023-09-08T11:57:16;7.75;;;4.75;;
54125;SDS011;40360;52.992;6.796;2023-09-08T11:59:42;8.35;;;4.15;;
54125;SDS011;40360;52.992;6.796;2023-09-08T12:02:11;6.32;;;4.25;;
54125;SDS011;40360;52.992;6.796;2023-09-08T12:04:37;3.92;;;3.60;;
54125;SDS011;40360;52.992;6.796;2023-09-08T12:07:03;5.38;;;4.65;;
54125;SDS011;40360;52.992;6.796;2023-09-08T12:09:29;4.80;;;3.97;;
54125;SDS011;40360;52.992;6.796;2023-09-08T12:11:55;4.40;;;3.80;;
54125;SDS011;40360;52.992;6.796;2023-09-08T12:14:22;5.75;;;4.40;;
54125;SDS011;40360;52.992;6.796;2023-09-08T12:16:54;6.25;;;4.30;;
54125;SDS011;40360;52.992;6.796;2023-09-08T12:19:32;6.00;;;4.43;;
54125;SDS011;40360;52.992;6.796;2023-09-08T12:22:01;5.22;;;4.72;;
54125;SDS011;40360;52.992;6.796;2023-09-08T12:24:47;5.68;;;4.90;;
54125;SDS011;40360;52.992;6.796;2023-09-08T12:27:14;7.20;;;4.90;;
54125;SDS011;40360;52.992;6.796;2023-09-08T12:29:41;6.20;;;4.53;;
54125;SDS011;40360;52.992;6.796;2023-09-08T12:32:16;4.78;;;4.28;;
54125;SDS011;40360;52.992;6.796;2023-09-08T12:34:43;5.00;;;4.15;;
54125;SDS011;40360;52.992;6.796;2023-09-08T12:37:09;6.85;;;4.63;;
54125;SDS011;40360;52.992;6.796;2023-09-08T12:39:37;7.35;;;4.10;;
54125;SDS011;40360;52.992;6.796;2023-09-08T12:42:04;4.85;;;4.43;;
54125;SDS011;40360;52.992;6.796;2023-09-08T12:44:30;5.25;;;4.20;;
54125;SDS011;40360;52.992;6.796;2023-09-08T12:46:55;6.28;;;4.50;;
54125;SDS011;40360;52.992;6.796;2023-09-08T12:49:21;7.18;;;4.60;;
54125;SDS011;40360;52.992;6.796;2023-09-08T12:51:47;10.70;;;4.68;;
54125;SDS011;40360;52.992;6.796;2023-09-08T12:54:12;5.65;;;4.22;;
54125;SDS011;40360;52.992;6.796;2023-09-08T12:56:38;8.13;;;4.60;;
54125;SDS011;40360;52.992;6.796;2023-09-08T12:59:04;6.13;;;4.28;;
54125;SDS011;40360;52.992;6.796;2023-09-08T13:01:29;5.72;;;4.57;;
54125;SDS011;40360;52.992;6.796;2023-09-08T13:03:55;7.38;;;4.90;;
54125;SDS011;40360;52.992;6.796;2023-09-08T13:06:21;14.85;;;5.78;;
54125;SDS011;40360;52.992;6.796;2023-09-08T13:08:46;5.95;;;4.63;;
54125;SDS011;40360;52.992;6.796;2023-09-08T13:11:12;4.15;;;3.70;;
54125;SDS011;40360;52.992;6.796;2023-09-08T13:13:38;6.85;;;4.20;;
54125;SDS011;40360;52.992;6.796;2023-09-08T13:16:03;5.68;;;4.50;;
54125;SDS011;40360;52.992;6.796;2023-09-08T13:18:29;6.72;;;4.68;;
54125;SDS011;40360;52.992;6.796;2023-09-08T13:21:00;5.50;;;4.40;;
54125;SDS011;40360;52.992;6.796;2023-09-08T13:23:26;5.38;;;4.50;;
54125;SDS011;40360;52.992;6.796;2023-09-08T13:25:51;6.68;;;4.38;;
54125;SDS011;40360;52.992;6.796;2023-09-08T13:28:17;6.10;;;4.32;;
54125;SDS011;40360;52.992;6.796;2023-09-08T13:30:43;5.47;;;4.97;;
54125;SDS011;40360;52.992;6.796;2023-09-08T13:33:09;5.97;;;4.60;;
54125;SDS011;40360;52.992;6.796;2023-09-08T13:35:34;5.10;;;4.50;;
54125;SDS011;40360;52.992;6.796;2023-09-08T13:38:00;6.85;;;4.22;;
54125;SDS011;40360;52.992;6.796;2023-09-08T13:40:28;5.47;;;4.57;;
54125;SDS011;40360;52.992;6.796;2023-09-08T13:42:53;4.72;;;4.18;;
54125;SDS011;40360;52.992;6.796;2023-09-08T13:45:19;6.78;;;4.00;;
54125;SDS011;40360;52.992;6.796;2023-09-08T13:47:44;5.93;;;4.03;;
54125;SDS011;40360;52.992;6.796;2023-09-08T13:50:10;5.43;;;4.18;;
54125;SDS011;40360;52.992;6.796;2023-09-08T13:52:36;7.22;;;4.28;;
54125;SDS011;40360;52.992;6.796;2023-09-08T13:55:04;6.32;;;4.25;;
54125;SDS011;40360;52.992;6.796;2023-09-08T13:57:31;6.65;;;4.55;;
54125;SDS011;40360;52.992;6.796;2023-09-08T13:59:57;5.13;;;4.47;;
54125;SDS011;40360;52.992;6.796;2023-09-08T14:02:22;6.63;;;4.90;;
54125;SDS011;40360;52.992;6.796;2023-09-08T14:04:48;6.25;;;4.18;;
54125;SDS011;40360;52.992;6.796;2023-09-08T14:07:14;6.28;;;4.43;;
54125;SDS011;40360;52.992;6.796;2023-09-08T14:09:40;5.38;;;4.53;;
54125;SDS011;40360;52.992;6.796;2023-09-08T14:12:05;7.55;;;5.00;;
54125;SDS011;40360;52.992;6.796;2023-09-08T14:14:31;5.93;;;4.72;;
54125;SDS011;40360;52.992;6.796;2023-09-08T14:16:57;7.15;;;4.60;;
54125;SDS011;40360;52.992;6.796;2023-09-08T14:19:22;5.57;;;4.05;;
54125;SDS011;40360;52.992;6.796;2023-09-08T14:21:48;6.32;;;4.45;;
54125;SDS011;40360;52.992;6.796;2023-09-08T14:24:14;4.18;;;3.75;;
54125;SDS011;40360;52.992;6.796;2023-09-08T14:26:39;9.88;;;4.80;;
54125;SDS011;40360;52.992;6.796;2023-09-08T14:31:30;6.05;;;4.20;;
54125;SDS011;40360;52.992;6.796;2023-09-08T14:33:58;5.68;;;4.47;;
54125;SDS011;40360;52.992;6.796;2023-09-08T14:36:24;5.18;;;4.68;;
54125;SDS011;40360;52.992;6.796;2023-09-08T14:38:50;7.65;;;4.53;;
54125;SDS011;40360;52.992;6.796;2023-09-08T14:41:15;6.60;;;4.40;;
54125;SDS011;40360;52.992;6.796;2023-09-08T14:43:42;7.18;;;4.50;;
54125;SDS011;40360;52.992;6.796;2023-09-08T14:46:07;6.47;;;4.13;;
54125;SDS011;40360;52.992;6.796;2023-09-08T14:48:33;5.50;;;4.90;;
54125;SDS011;40360;52.992;6.796;2023-09-08T14:51:00;6.43;;;4.78;;
54125;SDS011;40360;52.992;6.796;2023-09-08T14:53:26;4.55;;;4.03;;
54125;SDS011;40360;52.992;6.796;2023-09-08T14:55:53;6.43;;;4.38;;
54125;SDS011;40360;52.992;6.796;2023-09-08T14:58:22;6.25;;;4.80;;